Terminal Aerodrome Forecast
Issued by NWS

Home | Current Version | Previous Version | Text Only | Print | Product List | Glossary On
Versions: 1 2 3 4 5 6 7 8 9 10 11 12 13 14 15 16 17 18 19 20 21 22 23 24 25 26 27 28 29 30 31 32 33 34 35 36 37 38 39 40
000
FTUS43 KDDC 242051 AAA
TAFHYS
TAF AMD
KHYS 242051Z 2421/2518 15010KT P6SM OVC025
     FM250400 15010KT 3SM BR OVC008
     FM250700 15009KT 4SM BR OVC003 PROB30 2507/2510 4SM TS BKN003CB
     FM251500 18008KT P6SM BKN020=

USA.gov is the U.S. government's official web portal to all federal, state and local government web resources and services.